Station Historical Data
Daily Summary for March 31, 2017 Units:  English    Metric   Both
Next Day »
Daily Weekly Monthly Yearly Custom
  High: Low: Average:
Temperature: 63.5 °F 38.2 °F 50.1 °F
Dew Point: 40.1 °F 25.6 °F 32 °F
Humidity: 71% 31% 51%
Wind Speed: 17.0mph 0.0mph 2.7mph
Wind Gust: 27.0mph - -
Wind- - SE
Pressure: 30.07 in 29.98 in -
Precipitation: 0.00 in    
Historical Graphs
 
 
Tabular Data for March 31, 2017
Time Temperature Dew Point Pressure Wind Wind Speed Wind Gust Humidity Rainfall Rate (Hourly) solar Conditions
00:00 41.8 °F 27.3 °F 30.06 in Calm   6.0 mph 56% 0.00 in 0.00 W/m2
00:05 41.6 °F 28.8 °F 30.06 in Calm   4.0 mph 60% 0.00 in 0.00 W/m2
00:10 41.4 °F 27.8 °F 30.06 in Calm   6.0 mph 58% 0.00 in 0.00 W/m2
00:15 41.3 °F 27.6 °F 30.06 in Calm   3.0 mph 58% 0.00 in 0.00 W/m2
00:20 41.0 °F 27.4 °F 30.06 in NNW 4.0 mph 7.0 mph 58% 0.00 in 0.00 W/m2
00:25 41.0 °F 29.0 °F 30.06 in Calm     62% 0.00 in 0.00 W/m2
00:30 40.9 °F 29.7 °F 30.06 in Calm     64% 0.00 in 0.00 W/m2
00:35 40.9 °F 30.4 °F 30.06 in Calm     66% 0.00 in 0.00 W/m2
00:37 40.9 °F 31.2 °F 30.06 in Calm     68% 0.00 in 0.00 W/m2
00:42 40.8 °F 30.3 °F 30.06 in Calm   7.0 mph 66% 0.00 in 0.00 W/m2
00:47 40.6 °F 29.4 °F 30.06 in Calm   5.0 mph 64% 0.00 in 0.00 W/m2
00:52 40.3 °F 30.2 °F 30.06 in North 3.0 mph 4.0 mph 67% 0.00 in 0.00 W/m2
00:53 40.1 °F 29.3 °F 30.06 in Calm   6.0 mph 65% 0.00 in 0.00 W/m2
00:58 39.8 °F 29.4 °F 30.06 in Calm   5.0 mph 66% 0.00 in 0.00 W/m2
01:03 39.6 °F 29.9 °F 30.06 in Calm     68% 0.00 in 0.00 W/m2
01:09 39.6 °F 29.2 °F 30.06 in Calm   9.0 mph 66% 0.00 in 0.00 W/m2
01:14 39.5 °F 27.2 °F 30.06 in Calm   13.0 mph 61% 0.00 in 0.00 W/m2
01:19 39.8 °F 27.1 °F 30.06 in Calm   9.0 mph 60% 0.00 in 0.00 W/m2
01:24 40.1 °F 29.3 °F 30.06 in Calm   5.0 mph 65% 0.00 in 0.00 W/m2
01:29 40.2 °F 30.5 °F 30.06 in Calm     68% 0.00 in 0.00 W/m2
01:34 40.2 °F 29.8 °F 30.06 in Calm   5.0 mph 66% 0.00 in 0.00 W/m2
01:39 40.2 °F 28.6 °F 30.06 in Calm   5.0 mph 63% 0.00 in 0.00 W/m2
01:44 40.1 °F 28.9 °F 30.07 in Calm     64% 0.00 in 0.00 W/m2
01:49 39.9 °F 27.6 °F 30.07 in Calm     61% 0.00 in 0.00 W/m2
01:54 39.9 °F 28.3 °F 30.07 in NNW 3.0 mph 9.0 mph 63% 0.00 in 0.00 W/m2
01:59 39.8 °F 28.6 °F 30.07 in NW 7.0 mph 7.0 mph 64% 0.00 in 0.00 W/m2
02:04 39.7 °F 27.0 °F 30.07 in Calm   6.0 mph 60% 0.00 in 0.00 W/m2
02:09 39.7 °F 27.4 °F 30.07 in Calm   6.0 mph 61% 0.00 in 0.00 W/m2
02:14 39.7 °F 27.4 °F 30.06 in NNW 2.0 mph 8.0 mph 61% 0.00 in 0.00 W/m2
02:19 39.8 °F 27.9 °F 30.06 in NNW 3.0 mph 6.0 mph 62% 0.00 in 0.00 W/m2
02:24 39.8 °F 27.5 °F 30.06 in NNW 5.0 mph 7.0 mph 61% 0.00 in 0.00 W/m2
02:29 39.8 °F 26.7 °F 30.06 in NNW 6.0 mph 8.0 mph 59% 0.00 in 0.00 W/m2
02:34 39.8 °F 27.5 °F 30.06 in NW 3.0 mph 8.0 mph 61% 0.00 in 0.00 W/m2
02:39 39.7 °F 25.7 °F 30.05 in Calm   9.0 mph 57% 0.00 in 0.00 W/m2
02:44 40.0 °F 25.6 °F 30.06 in NNW 4.0 mph 8.0 mph 56% 0.00 in 0.00 W/m2
02:49 40.1 °F 27.8 °F 30.06 in Calm   10.0 mph 61% 0.00 in 0.00 W/m2
02:54 40.2 °F 29.0 °F 30.05 in Calm   3.0 mph 64% 0.00 in 0.00 W/m2
02:59 40.0 °F 27.2 °F 30.05 in NNW 5.0 mph 7.0 mph 60% 0.00 in 0.00 W/m2
03:04 39.9 °F 28.3 °F 30.05 in Calm   8.0 mph 63% 0.00 in 0.00 W/m2
03:09 39.8 °F 27.9 °F 30.05 in Calm     62% 0.00 in 0.00 W/m2
03:14 39.7 °F 28.5 °F 30.05 in Calm   6.0 mph 64% 0.00 in 0.00 W/m2
03:19 39.5 °F 28.7 °F 30.05 in Calm   5.0 mph 65% 0.00 in 0.00 W/m2
03:24 39.1 °F 28.3 °F 30.05 in Calm   4.0 mph 65% 0.00 in 0.00 W/m2
03:29 38.9 °F 28.9 °F 30.05 in North 1.0 mph 6.0 mph 67% 0.00 in 0.00 W/m2
03:34 38.7 °F 28.7 °F 30.04 in Calm   8.0 mph 67% 0.00 in 0.00 W/m2
03:39 38.5 °F 28.5 °F 30.04 in Calm   6.0 mph 67% 0.00 in 0.00 W/m2
03:44 38.4 °F 28.0 °F 30.04 in NNE 5.0 mph 9.0 mph 66% 0.00 in 0.00 W/m2
03:49 38.4 °F 28.0 °F 30.03 in Calm   8.0 mph 66% 0.00 in 0.00 W/m2
03:54 38.4 °F 28.0 °F 30.04 in NNE 4.0 mph 6.0 mph 66% 0.00 in 0.00 W/m2
03:59 38.4 °F 28.0 °F 30.04 in NE 4.0 mph 8.0 mph 66% 0.00 in 0.00 W/m2
04:04 38.4 °F 27.7 °F 30.04 in NNE 4.0 mph 7.0 mph 65% 0.00 in 0.00 W/m2
04:09 38.5 °F 28.1 °F 30.04 in Calm   8.0 mph 66% 0.00 in 0.00 W/m2
04:14 38.5 °F 28.9 °F 30.04 in Calm   8.0 mph 68% 0.00 in 0.00 W/m2
04:20 38.5 °F 29.2 °F 30.04 in Calm   5.0 mph 69% 0.00 in 0.00 W/m2
04:25 38.4 °F 29.5 °F 30.04 in Calm   8.0 mph 70% 0.00 in 0.00 W/m2
04:30 38.3 °F 28.3 °F 30.04 in Calm   9.0 mph 67% 0.00 in 0.00 W/m2
04:35 38.3 °F 28.7 °F 30.04 in Calm   10.0 mph 68% 0.00 in 0.00 W/m2
04:40 38.2 °F 29.3 °F 30.04 in NNE 6.0 mph 8.0 mph 70% 0.00 in 0.00 W/m2
04:45 38.2 °F 28.6 °F 30.04 in North 2.0 mph 8.0 mph 68% 0.00 in 0.00 W/m2
04:50 38.2 °F 29.3 °F 30.04 in NE 9.0 mph 10.0 mph 70% 0.00 in 0.00 W/m2
04:55 38.3 °F 29.7 °F 30.03 in NNE 2.0 mph 13.0 mph 71% 0.00 in 0.00 W/m2
05:00 38.4 °F 29.8 °F 30.03 in NNE 3.0 mph 9.0 mph 71% 0.00 in 0.00 W/m2
05:05 38.5 °F 29.2 °F 30.03 in Calm   13.0 mph 69% 0.00 in 0.00 W/m2
05:10 38.5 °F 29.9 °F 30.03 in NE 8.0 mph 10.0 mph 71% 0.00 in 0.00 W/m2
05:15 38.4 °F 29.1 °F 30.03 in Calm   10.0 mph 69% 0.00 in 0.00 W/m2
05:18 38.4 °F 28.8 °F 30.03 in NNE 1.0 mph 8.0 mph 68% 0.00 in 0.00 W/m2
05:23 38.4 °F 28.8 °F 30.03 in Calm   6.0 mph 68% 0.00 in 0.00 W/m2
05:28 38.4 °F 29.5 °F 30.03 in NE 1.0 mph 10.0 mph 70% 0.00 in 0.00 W/m2
05:33 38.5 °F 29.9 °F 30.03 in Calm   9.0 mph 71% 0.00 in 0.00 W/m2
05:38 38.4 °F 29.8 °F 30.03 in North 6.0 mph 10.0 mph 71% 0.00 in 0.00 W/m2
05:44 38.2 °F 29.3 °F 30.03 in NNE 6.0 mph 13.0 mph 70% 0.00 in 0.00 W/m2
05:49 38.3 °F 29.0 °F 30.03 in NNE 5.0 mph 14.0 mph 69% 0.00 in 0.00 W/m2
05:54 38.4 °F 29.1 °F 30.03 in NNE 6.0 mph 16.0 mph 69% 0.00 in 0.00 W/m2
05:59 38.5 °F 28.1 °F 30.03 in Calm   16.0 mph 66% 0.00 in 0.00 W/m2
06:04 38.6 °F 28.2 °F 30.03 in Calm   10.0 mph 66% 0.00 in 0.00 W/m2
06:09 38.9 °F 27.8 °F 30.03 in NNE 4.0 mph 16.0 mph 64% 0.00 in 0.00 W/m2
06:14 39.2 °F 28.4 °F 30.03 in Calm   15.0 mph 65% 0.00 in 0.00 W/m2
06:19 39.4 °F 27.9 °F 30.03 in NNE 2.0 mph 9.0 mph 63% 0.00 in 0.00 W/m2
06:24 39.5 °F 28.4 °F 30.03 in North 3.0 mph 10.0 mph 64% 0.00 in 0.00 W/m2
06:29 39.6 °F 27.7 °F 30.03 in NNE 5.0 mph 9.0 mph 62% 0.00 in 0.00 W/m2
06:34 39.7 °F 27.0 °F 30.03 in North 7.0 mph 13.0 mph 60% 0.00 in 0.00 W/m2
06:39 39.8 °F 27.5 °F 30.03 in Calm   4.0 mph 61% 0.00 in 0.00 W/m2
06:44 40.0 °F 26.8 °F 30.03 in NNE 4.0 mph 10.0 mph 59% 0.00 in 5.00 W/m2
06:49 40.1 °F 26.9 °F 30.03 in Calm   7.0 mph 59% 0.00 in 7.00 W/m2
06:54 40.3 °F 25.9 °F 30.03 in Calm   10.0 mph 56% 0.00 in 9.00 W/m2
06:59 40.3 °F 27.1 °F 30.03 in Calm   7.0 mph 59% 0.00 in 12.00 W/m2
07:04 40.2 °F 27.8 °F 30.03 in Calm   3.0 mph 61% 0.00 in 18.00 W/m2
07:09 40.0 °F 27.6 °F 30.04 in Calm   7.0 mph 61% 0.00 in 21.00 W/m2
07:14 39.8 °F 27.5 °F 30.04 in Calm   7.0 mph 61% 0.00 in 30.00 W/m2
07:19 39.7 °F 28.9 °F 30.04 in Calm   7.0 mph 65% 0.00 in 42.00 W/m2
07:24 39.5 °F 28.0 °F 30.04 in Calm   9.0 mph 63% 0.00 in 56.00 W/m2
07:29 39.3 °F 27.4 °F 30.04 in NE 7.0 mph 13.0 mph 62% 0.00 in 72.00 W/m2
07:34 39.4 °F 26.3 °F 30.04 in Calm   8.0 mph 59% 0.00 in 90.00 W/m2
07:39 39.6 °F 27.3 °F 30.04 in NNE 1.0 mph 5.0 mph 61% 0.00 in 107.00 W/m2
07:44 39.6 °F 28.4 °F 30.04 in NNE 8.0 mph 13.0 mph 64% 0.00 in 127.00 W/m2
07:49 39.7 °F 27.0 °F 30.04 in North 4.0 mph 13.0 mph 60% 0.00 in 142.00 W/m2
07:54 40.0 °F 27.2 °F 30.04 in NNE 8.0 mph 11.0 mph 60% 0.00 in 160.00 W/m2
07:59 40.1 °F 28.1 °F 30.04 in NNW 9.0 mph 11.0 mph 62% 0.00 in 185.00 W/m2
08:04 40.3 °F 27.9 °F 30.04 in Calm   9.0 mph 61% 0.00 in 199.00 W/m2
08:09 40.5 °F 28.5 °F 30.03 in Calm   10.0 mph 62% 0.00 in 218.00 W/m2
08:15 40.6 °F 28.2 °F 30.03 in Calm   8.0 mph 61% 0.00 in 250.00 W/m2
08:20 40.8 °F 28.4 °F 30.03 in Calm   13.0 mph 61% 0.00 in 272.00 W/m2
08:25 41.0 °F 29.4 °F 30.03 in North 5.0 mph 9.0 mph 63% 0.00 in 288.00 W/m2
08:30 41.3 °F 29.7 °F 30.03 in NNE 2.0 mph 10.0 mph 63% 0.00 in 301.00 W/m2
08:35 41.5 °F 28.7 °F 30.03 in Calm   16.0 mph 60% 0.00 in 330.00 W/m2
08:40 41.8 °F 29.0 °F 30.03 in NNW 3.0 mph 10.0 mph 60% 0.00 in 343.00 W/m2
08:45 42.2 °F 28.9 °F 30.03 in NNW 2.0 mph 11.0 mph 59% 0.00 in 367.00 W/m2
08:50 42.6 °F 29.3 °F 30.03 in North 10.0 mph 13.0 mph 59% 0.00 in 387.00 W/m2
08:55 43.0 °F 28.8 °F 30.02 in North 3.0 mph 10.0 mph 57% 0.00 in 404.00 W/m2
09:00 43.5 °F 30.1 °F 30.03 in NNW 15.0 mph 21.0 mph 59% 0.00 in 420.00 W/m2
09:05 44.3 °F 29.2 °F 30.03 in North 9.0 mph 10.0 mph 55% 0.00 in 438.00 W/m2
09:10 45.2 °F 28.6 °F 30.02 in NNW 3.0 mph 16.0 mph 52% 0.00 in 454.00 W/m2
09:15 45.7 °F 29.1 °F 30.03 in North 1.0 mph 6.0 mph 52% 0.00 in 466.00 W/m2
09:20 46.0 °F 28.4 °F 30.03 in North 1.0 mph 13.0 mph 50% 0.00 in 485.00 W/m2
09:25 46.3 °F 29.2 °F 30.03 in North 1.0 mph 12.0 mph 51% 0.00 in 503.00 W/m2
09:30 46.5 °F 32.1 °F 30.03 in North 3.0 mph 11.0 mph 57% 0.00 in 515.00 W/m2
09:35 46.5 °F 32.1 °F 30.02 in North 13.0 mph 21.0 mph 57% 0.00 in 533.00 W/m2
09:40 47.0 °F 29.8 °F 30.02 in North 8.0 mph 24.0 mph 51% 0.00 in 547.00 W/m2
09:45 47.6 °F 30.9 °F 30.03 in NNW 2.0 mph 14.0 mph 52% 0.00 in 561.00 W/m2
09:50 47.9 °F 33.0 °F 30.03 in ENE 3.0 mph 20.0 mph 56% 0.00 in 571.00 W/m2
09:55 48.2 °F 32.8 °F 30.03 in NNE 9.0 mph 13.0 mph 55% 0.00 in 592.00 W/m2
10:00 48.8 °F 31.0 °F 30.03 in NE 5.0 mph 13.0 mph 50% 0.00 in 608.00 W/m2
10:05 49.4 °F 31.6 °F 30.03 in NE 6.0 mph 18.0 mph 50% 0.00 in 628.00 W/m2
10:10 49.7 °F 32.3 °F 30.03 in NNE 4.0 mph 17.0 mph 51% 0.00 in 640.00 W/m2
10:15 50.1 °F 30.7 °F 30.03 in NNW 5.0 mph 21.0 mph 47% 0.00 in 654.00 W/m2
10:20 50.6 °F 30.6 °F 30.03 in North 6.0 mph 14.0 mph 46% 0.00 in 663.00 W/m2
10:25 51.0 °F 31.0 °F 30.03 in North 1.0 mph 20.0 mph 46% 0.00 in 680.00 W/m2
10:30 51.4 °F 30.2 °F 30.04 in NNE 2.0 mph 11.0 mph 44% 0.00 in 696.00 W/m2
10:35 51.7 °F 30.5 °F 30.03 in ENE 15.0 mph 22.0 mph 44% 0.00 in 708.00 W/m2
10:40 52.1 °F 31.4 °F 30.03 in North 2.0 mph 23.0 mph 45% 0.00 in 722.00 W/m2
10:42 52.2 °F 33.6 °F 30.03 in ENE 7.0 mph 7.0 mph 49% 0.00 in 724.00 W/m2
10:47 52.5 °F 33.4 °F 30.03 in ESE 7.0 mph 20.0 mph 48% 0.00 in 737.00 W/m2
10:52 52.9 °F 32.2 °F 30.03 in ENE 1.0 mph 5.0 mph 45% 0.00 in 745.00 W/m2
10:57 53.2 °F 33.0 °F 30.03 in East 4.0 mph 10.0 mph 46% 0.00 in 756.00 W/m2
11:02 53.7 °F 33.4 °F 30.03 in SSE 2.0 mph 6.0 mph 46% 0.00 in 766.00 W/m2
11:07 53.9 °F 34.7 °F 30.03 in Calm   3.0 mph 48% 0.00 in 775.00 W/m2
11:12 54.0 °F 34.8 °F 30.03 in SSW 1.0 mph 1.0 mph 48% 0.00 in 786.00 W/m2
11:17 54.1 °F 33.2 °F 30.03 in SSE 5.0 mph 5.0 mph 45% 0.00 in 795.00 W/m2
11:22 54.3 °F 32.3 °F 30.03 in Calm   8.0 mph 43% 0.00 in 803.00 W/m2
11:27 54.5 °F 31.9 °F 30.03 in SSE 2.0 mph 5.0 mph 42% 0.00 in 810.00 W/m2
11:32 54.8 °F 33.9 °F 30.03 in South 6.0 mph 9.0 mph 45% 0.00 in 819.00 W/m2
11:37 55.0 °F 34.1 °F 30.03 in Calm   2.0 mph 45% 0.00 in 826.00 W/m2
11:42 55.2 °F 31.9 °F 30.03 in Calm     41% 0.00 in 835.00 W/m2
11:47 55.4 °F 32.7 °F 30.03 in Calm   1.0 mph 42% 0.00 in 842.00 W/m2
11:52 55.6 °F 33.5 °F 30.03 in Calm     43% 0.00 in 847.00 W/m2
11:57 55.8 °F 34.8 °F 30.03 in Calm   3.0 mph 45% 0.00 in 853.00 W/m2
12:02 56.2 °F 34.0 °F 30.03 in NE 2.0 mph 8.0 mph 43% 0.00 in 858.00 W/m2
12:07 56.7 °F 34.5 °F 30.03 in Calm   2.0 mph 43% 0.00 in 861.00 W/m2
12:12 57.2 °F 32.5 °F 30.03 in NNE 9.0 mph 11.0 mph 39% 0.00 in 874.00 W/m2
12:18 57.6 °F 33.5 °F 30.02 in NE 6.0 mph 12.0 mph 40% 0.00 in 870.00 W/m2
12:23 58.2 °F 36.4 °F 30.02 in NE 1.0 mph 5.0 mph 44% 0.00 in 877.00 W/m2
12:28 58.6 °F 34.4 °F 30.02 in NNE 6.0 mph 18.0 mph 40% 0.00 in 884.00 W/m2
12:33 58.8 °F 31.9 °F 30.02 in Calm   11.0 mph 36% 0.00 in 884.00 W/m2
12:38 59.0 °F 33.5 °F 30.02 in NW 6.0 mph 16.0 mph 38% 0.00 in 881.00 W/m2
12:43 59.3 °F 33.7 °F 30.01 in NNE 10.0 mph 10.0 mph 38% 0.00 in 886.00 W/m2
12:48 59.6 °F 33.3 °F 30.02 in NNW 2.0 mph 16.0 mph 37% 0.00 in 896.00 W/m2
12:53 59.9 °F 32.2 °F 30.02 in North 1.0 mph 13.0 mph 35% 0.00 in 893.00 W/m2
12:58 60.0 °F 32.3 °F 30.01 in North 9.0 mph 18.0 mph 35% 0.00 in 886.00 W/m2
13:03 60.2 °F 34.5 °F 30.02 in North 2.0 mph 5.0 mph 38% 0.00 in 889.00 W/m2
13:08 60.6 °F 34.2 °F 30.01 in NNW 4.0 mph 6.0 mph 37% 0.00 in 891.00 W/m2
13:13 60.9 °F 33.1 °F 30.01 in NNW 2.0 mph 16.0 mph 35% 0.00 in 891.00 W/m2
13:18 61.0 °F 33.9 °F 30.02 in NE 12.0 mph 15.0 mph 36% 0.00 in 891.00 W/m2
13:23 61.1 °F 33.3 °F 30.01 in NW 7.0 mph 13.0 mph 35% 0.00 in 889.00 W/m2
13:28 61.1 °F 32.5 °F 30.01 in NNE 1.0 mph 9.0 mph 34% 0.00 in 888.00 W/m2
13:33 61.2 °F 31.9 °F 30.01 in NNE 11.0 mph 20.0 mph 33% 0.00 in 889.00 W/m2
13:38 61.1 °F 34.7 °F 30.01 in NNW 3.0 mph 5.0 mph 37% 0.00 in 879.00 W/m2
13:43 61.2 °F 33.3 °F 30.01 in NW 8.0 mph 16.0 mph 35% 0.00 in 877.00 W/m2
13:48 61.3 °F 32.7 °F 30.00 in North 3.0 mph 21.0 mph 34% 0.00 in 870.00 W/m2
13:53 61.7 °F 35.9 °F 30.01 in Calm   4.0 mph 38% 0.00 in 868.00 W/m2
13:58 62.0 °F 34.8 °F 30.00 in North 16.0 mph 16.0 mph 36% 0.00 in 863.00 W/m2
14:03 62.3 °F 34.3 °F 30.00 in Calm   16.0 mph 35% 0.00 in 865.00 W/m2
14:08 62.7 °F 34.0 °F 30.00 in North 3.0 mph 9.0 mph 34% 0.00 in 858.00 W/m2
14:13 63.0 °F 34.2 °F 30.00 in Calm   16.0 mph 34% 0.00 in 847.00 W/m2
14:18 63.2 °F 32.9 °F 29.99 in NE 8.0 mph 9.0 mph 32% 0.00 in 844.00 W/m2
14:23 63.4 °F 34.6 °F 30.00 in NNW 8.0 mph 12.0 mph 34% 0.00 in 835.00 W/m2
14:28 63.5 °F 34.7 °F 29.99 in NNE 7.0 mph 14.0 mph 34% 0.00 in 828.00 W/m2
14:33 63.4 °F 32.3 °F 30.00 in Calm   23.0 mph 31% 0.00 in 826.00 W/m2
14:38 63.1 °F 33.6 °F 29.99 in Calm   15.0 mph 33% 0.00 in 816.00 W/m2
14:43 63.1 °F 33.6 °F 29.99 in NE 6.0 mph 17.0 mph 33% 0.00 in 810.00 W/m2
14:48 63.1 °F 32.8 °F 29.99 in North 10.0 mph 20.0 mph 32% 0.00 in 800.00 W/m2
14:53 62.9 °F 33.4 °F 29.99 in NNW 6.0 mph 20.0 mph 33% 0.00 in 789.00 W/m2
14:58 62.7 °F 31.6 °F 29.99 in NE 5.0 mph 17.0 mph 31% 0.00 in 780.00 W/m2
15:03 62.7 °F 33.2 °F 29.99 in NNW 3.0 mph 12.0 mph 33% 0.00 in 766.00 W/m2
15:08 62.9 °F 32.6 °F 29.98 in Calm   13.0 mph 32% 0.00 in 756.00 W/m2
15:13 62.9 °F 33.4 °F 29.98 in NNE 7.0 mph 15.0 mph 33% 0.00 in 747.00 W/m2
15:18 63.0 °F 33.5 °F 29.98 in NNE 4.0 mph 19.0 mph 33% 0.00 in 731.00 W/m2
15:23 63.2 °F 35.8 °F 29.98 in Calm   15.0 mph 36% 0.00 in 719.00 W/m2
15:28 63.3 °F 34.5 °F 29.98 in Calm   13.0 mph 34% 0.00 in 707.00 W/m2
15:33 63.2 °F 33.6 °F 29.98 in North 10.0 mph 16.0 mph 33% 0.00 in 701.00 W/m2
15:38 63.2 °F 32.9 °F 29.98 in NNW 4.0 mph 12.0 mph 32% 0.00 in 680.00 W/m2
15:43 63.2 °F 32.9 °F 29.98 in WNW 11.0 mph 17.0 mph 32% 0.00 in 673.00 W/m2
15:48 63.3 °F 32.2 °F 29.98 in North 1.0 mph 17.0 mph 31% 0.00 in 663.00 W/m2
15:53 63.3 °F 35.2 °F 29.98 in ENE 6.0 mph 20.0 mph 35% 0.00 in 642.00 W/m2
15:58 63.3 °F 35.2 °F 29.98 in East 13.0 mph 23.0 mph 35% 0.00 in 619.00 W/m2
16:03 63.2 °F 37.2 °F 29.98 in NNE 2.0 mph 5.0 mph 38% 0.00 in 592.00 W/m2
16:08 63.2 °F 37.2 °F 29.98 in ESE 2.0 mph 13.0 mph 38% 0.00 in 591.00 W/m2
16:13 62.9 °F 38.9 °F 29.98 in Calm   6.0 mph 41% 0.00 in 587.00 W/m2
16:18 62.7 °F 36.1 °F 29.99 in NNW 4.0 mph 12.0 mph 37% 0.00 in 573.00 W/m2
16:24 63.0 °F 37.7 °F 29.99 in North 5.0 mph 6.0 mph 39% 0.00 in 561.00 W/m2
16:29 63.0 °F 33.5 °F 29.98 in NNE 5.0 mph 14.0 mph 33% 0.00 in 534.00 W/m2
16:34 63.1 °F 36.4 °F 29.98 in NE 11.0 mph 17.0 mph 37% 0.00 in 536.00 W/m2
16:39 63.2 °F 35.1 °F 29.98 in Calm   6.0 mph 35% 0.00 in 490.00 W/m2
16:44 63.2 °F 35.8 °F 29.98 in NW 2.0 mph 8.0 mph 36% 0.00 in 475.00 W/m2
16:49 63.2 °F 39.1 °F 29.98 in Calm   1.0 mph 41% 0.00 in 476.00 W/m2
16:54 62.9 °F 40.1 °F 29.99 in Calm   5.0 mph 43% 0.00 in 445.00 W/m2
16:59 62.7 °F 39.3 °F 30.00 in ENE 5.0 mph 13.0 mph 42% 0.00 in 443.00 W/m2
17:04 62.6 °F 36.0 °F 29.99 in NNW 8.0 mph 20.0 mph 37% 0.00 in 399.00 W/m2
17:09 62.5 °F 35.2 °F 30.00 in Calm   17.0 mph 36% 0.00 in 425.00 W/m2
17:14 62.3 °F 36.4 °F 30.00 in NE 3.0 mph 7.0 mph 38% 0.00 in 406.00 W/m2
17:19 62.2 °F 34.9 °F 30.00 in North 7.0 mph 16.0 mph 36% 0.00 in 392.00 W/m2
17:24 62.1 °F 35.5 °F 30.00 in NNE 4.0 mph 12.0 mph 37% 0.00 in 374.00 W/m2
17:29 62.1 °F 35.5 °F 30.00 in North 6.0 mph 14.0 mph 37% 0.00 in 353.00 W/m2
17:34 62.0 °F 36.8 °F 30.00 in ENE 17.0 mph 17.0 mph 39% 0.00 in 339.00 W/m2
17:39 61.8 °F 36.0 °F 30.00 in NE 3.0 mph 7.0 mph 38% 0.00 in 320.00 W/m2
17:44 61.6 °F 33.7 °F 30.00 in NE 6.0 mph 23.0 mph 35% 0.00 in 308.00 W/m2
17:49 61.5 °F 33.6 °F 30.00 in NE 5.0 mph 27.0 mph 35% 0.00 in 287.00 W/m2
17:54 61.3 °F 34.1 °F 30.00 in NE 2.0 mph 19.0 mph 36% 0.00 in 267.00 W/m2
17:59 61.2 °F 32.6 °F 30.00 in NE 8.0 mph 15.0 mph 34% 0.00 in 251.00 W/m2
18:04 61.1 °F 34.7 °F 30.00 in Calm   22.0 mph 37% 0.00 in 236.00 W/m2
18:09 60.9 °F 34.5 °F 30.00 in ENE 14.0 mph 21.0 mph 37% 0.00 in 209.00 W/m2
18:14 60.7 °F 32.9 °F 30.00 in NE 2.0 mph 13.0 mph 35% 0.00 in 167.00 W/m2
18:19 60.5 °F 34.8 °F 29.99 in Calm   20.0 mph 38% 0.00 in 160.00 W/m2
18:24 60.3 °F 33.9 °F 29.99 in NE 1.0 mph 23.0 mph 37% 0.00 in 144.00 W/m2
18:29 60.0 °F 35.0 °F 29.99 in ENE 10.0 mph 27.0 mph 39% 0.00 in 127.00 W/m2
18:34 59.7 °F 35.4 °F 29.99 in NE 7.0 mph 18.0 mph 40% 0.00 in 118.00 W/m2
18:39 59.5 °F 35.2 °F 30.00 in NE 5.0 mph 17.0 mph 40% 0.00 in 81.00 W/m2
18:44 59.3 °F 35.6 °F 30.00 in Calm   20.0 mph 41% 0.00 in 69.00 W/m2
18:51 59.1 °F 35.4 °F 30.00 in Calm   14.0 mph 41% 0.00 in 53.00 W/m2
18:56 58.7 °F 36.3 °F 30.00 in NE 3.0 mph 17.0 mph 43% 0.00 in 40.00 W/m2
19:01 58.5 °F 36.1 °F 30.01 in Calm   11.0 mph 43% 0.00 in 26.00 W/m2
19:06 58.3 °F 36.5 °F 30.01 in NNE 1.0 mph 8.0 mph 44% 0.00 in 19.00 W/m2
19:11 58.0 °F 35.1 °F 30.01 in Calm   8.0 mph 42% 0.00 in 16.00 W/m2
19:16 57.8 °F 34.9 °F 30.01 in Calm   3.0 mph 42% 0.00 in 12.00 W/m2
19:21 57.6 °F 35.9 °F 30.01 in NE 4.0 mph 6.0 mph 44% 0.00 in 9.00 W/m2
19:26 57.3 °F 35.0 °F 30.01 in NE 2.0 mph 8.0 mph 43% 0.00 in 7.00 W/m2
19:31 57.1 °F 36.0 °F 30.01 in NNE 5.0 mph 13.0 mph 45% 0.00 in 0.00 W/m2
19:36 56.8 °F 35.7 °F 30.01 in NNE 1.0 mph 11.0 mph 45% 0.00 in 0.00 W/m2
19:41 56.5 °F 35.4 °F 30.02 in Calm   7.0 mph 45% 0.00 in 0.00 W/m2
19:46 56.2 °F 35.2 °F 30.02 in Calm   4.0 mph 45% 0.00 in 0.00 W/m2
19:51 56.0 °F 35.0 °F 30.02 in ENE 4.0 mph 7.0 mph 45% 0.00 in 0.00 W/m2
19:56 55.7 °F 35.3 °F 30.02 in Calm   4.0 mph 46% 0.00 in 0.00 W/m2
20:01 55.4 °F 35.0 °F 30.02 in Calm   4.0 mph 46% 0.00 in 0.00 W/m2
20:06 55.2 °F 35.3 °F 30.03 in Calm   3.0 mph 47% 0.00 in 0.00 W/m2
20:11 54.9 °F 34.5 °F 30.03 in Calm     46% 0.00 in 0.00 W/m2
20:16 54.6 °F 36.3 °F 30.03 in Calm   3.0 mph 50% 0.00 in 0.00 W/m2
20:21 54.3 °F 35.6 °F 30.03 in Calm   4.0 mph 49% 0.00 in 0.00 W/m2
20:26 54.0 °F 35.3 °F 30.03 in Calm   2.0 mph 49% 0.00 in 0.00 W/m2
20:31 53.7 °F 35.0 °F 30.03 in NNE 2.0 mph 5.0 mph 49% 0.00 in 0.00 W/m2
20:36 53.4 °F 35.7 °F 30.04 in NNE 1.0 mph 5.0 mph 51% 0.00 in 0.00 W/m2
20:41 53.2 °F 35.1 °F 30.04 in Calm   3.0 mph 50% 0.00 in 0.00 W/m2
20:46 53.0 °F 34.9 °F 30.04 in NNE 1.0 mph 6.0 mph 50% 0.00 in 0.00 W/m2
20:51 52.9 °F 34.8 °F 30.05 in Calm   6.0 mph 50% 0.00 in 0.00 W/m2
20:56 52.7 °F 35.6 °F 30.05 in Calm   6.0 mph 52% 0.00 in 0.00 W/m2
21:01 52.6 °F 35.5 °F 30.05 in NNE 2.0 mph 8.0 mph 52% 0.00 in 0.00 W/m2
21:06 52.4 °F 34.3 °F 30.05 in Calm   6.0 mph 50% 0.00 in 0.00 W/m2
21:11 52.3 °F 36.2 °F 30.06 in Calm   6.0 mph 54% 0.00 in 0.00 W/m2
21:16 52.2 °F 34.6 °F 30.06 in Calm   6.0 mph 51% 0.00 in 0.00 W/m2
21:21 52.2 °F 35.1 °F 30.06 in Calm   5.0 mph 52% 0.00 in 0.00 W/m2
21:26 52.1 °F 35.0 °F 30.06 in Calm   4.0 mph 52% 0.00 in 0.00 W/m2
21:31 52.0 °F 34.5 °F 30.06 in Calm   8.0 mph 51% 0.00 in 0.00 W/m2
21:36 52.0 °F 34.5 °F 30.06 in Calm   4.0 mph 51% 0.00 in 0.00 W/m2
21:41 51.9 °F 33.9 °F 30.06 in Calm   3.0 mph 50% 0.00 in 0.00 W/m2
21:46 51.9 °F 35.3 °F 30.06 in NNE 1.0 mph 2.0 mph 53% 0.00 in 0.00 W/m2
21:51 51.8 °F 34.8 °F 30.06 in NE 3.0 mph 4.0 mph 52% 0.00 in 0.00 W/m2
21:56 51.7 °F 34.7 °F 30.06 in NE 3.0 mph 6.0 mph 52% 0.00 in 0.00 W/m2
22:01 51.6 °F 34.6 °F 30.06 in ENE 1.0 mph 6.0 mph 52% 0.00 in 0.00 W/m2
22:06 51.5 °F 35.4 °F 30.06 in Calm   6.0 mph 54% 0.00 in 0.00 W/m2
22:11 51.3 °F 36.2 °F 30.06 in NE 1.0 mph 6.0 mph 56% 0.00 in 0.00 W/m2
22:16 51.1 °F 34.1 °F 30.06 in NE 2.0 mph 7.0 mph 52% 0.00 in 0.00 W/m2
22:21 51.0 °F 34.0 °F 30.06 in Calm   2.0 mph 52% 0.00 in 0.00 W/m2
22:26 51.0 °F 34.0 °F 30.06 in Calm     52% 0.00 in 0.00 W/m2
22:31 51.0 °F 33.0 °F 30.06 in NNE 2.0 mph 2.0 mph 50% 0.00 in 0.00 W/m2
22:36 51.0 °F 34.5 °F 30.06 in Calm     53% 0.00 in 0.00 W/m2
22:41 51.0 °F 36.3 °F 30.06 in Calm     57% 0.00 in 0.00 W/m2
22:46 50.9 °F 35.3 °F 30.06 in Calm     55% 0.00 in 0.00 W/m2
22:51 50.8 °F 35.7 °F 30.06 in Calm   2.0 mph 56% 0.00 in 0.00 W/m2
22:56 50.6 °F 34.6 °F 30.06 in ENE 1.0 mph 2.0 mph 54% 0.00 in 0.00 W/m2
23:01 50.3 °F 34.8 °F 30.05 in Calm   1.0 mph 55% 0.00 in 0.00 W/m2
23:06 50.1 °F 35.0 °F 30.05 in ENE 1.0 mph 2.0 mph 56% 0.00 in 0.00 W/m2
23:11 49.9 °F 34.8 °F 30.05 in Calm     56% 0.00 in 0.00 W/m2
23:16 49.9 °F 35.3 °F 30.05 in Calm     57% 0.00 in 0.00 W/m2
23:21 49.7 °F 35.1 °F 30.05 in Calm     57% 0.00 in 0.00 W/m2
23:26 49.6 °F 33.7 °F 30.06 in Calm     54% 0.00 in 0.00 W/m2
23:31 49.5 °F 35.8 °F 30.06 in Calm     59% 0.00 in 0.00 W/m2
23:36 49.4 °F 34.8 °F 30.06 in Calm     57% 0.00 in 0.00 W/m2
23:41 49.2 °F 34.2 °F 30.05 in Calm     56% 0.00 in 0.00 W/m2
23:46 49.1 °F 34.5 °F 30.06 in Calm     57% 0.00 in 0.00 W/m2
23:51 49.0 °F 34.9 °F 30.06 in Calm     58% 0.00 in 0.00 W/m2
23:56 48.9 °F 33.9 °F 30.06 in Calm     56% 0.00 in 0.00 W/m2
Foresthill Weather
 WU-history PHP script courtesy of   Juneau County Weather.
powered by Cumulus v1.9.3 (1059)
Ambient Weather VWS v14.00
Top Contact Website Map Copyright © 2007 - 2018 Foresthillweather.com Never base important decisions on this or any weather information obtained from the Internet